createdAt,value
2019-05-07T00:01:23.297Z,14.37
2019-05-07T00:03:52.901Z,14.30
2019-05-07T00:06:23.198Z,15.40
2019-05-07T00:08:52.897Z,14.93
2019-05-07T00:11:22.493Z,14.43
2019-05-07T00:13:52.423Z,14.83
2019-05-07T00:16:22.408Z,14.67
2019-05-07T00:18:52.629Z,13.80
2019-05-07T00:21:23.307Z,14.33
2019-05-07T00:23:53.048Z,13.30
2019-05-07T00:26:22.739Z,13.33
2019-05-07T00:28:52.804Z,12.90
2019-05-07T00:31:23.254Z,13.13
2019-05-07T00:33:53.195Z,12.43
2019-05-07T00:36:28.911Z,12.63
2019-05-07T00:39:09.152Z,14.03
2019-05-07T00:41:47.228Z,13.20
2019-05-07T00:44:17.147Z,14.93
2019-05-07T00:46:46.639Z,15.17
2019-05-07T00:49:16.114Z,15.27
2019-05-07T00:51:45.616Z,13.93
2019-05-07T00:54:15.084Z,14.13
2019-05-07T00:56:44.576Z,15.20
2019-05-07T00:59:14.033Z,15.57
2019-05-07T01:01:43.561Z,15.27
2019-05-07T01:04:13.037Z,15.40
2019-05-07T01:06:42.579Z,15.63
2019-05-07T01:09:12.416Z,16.40
2019-05-07T01:11:42.865Z,15.70
2019-05-07T01:14:12.723Z,16.43
2019-05-07T01:16:42.353Z,15.93
2019-05-07T01:19:12.526Z,18.50
2019-05-07T01:21:43.224Z,16.07
2019-05-07T01:24:13.025Z,17.50
2019-05-07T01:26:42.703Z,17.60
2019-05-07T01:29:12.988Z,17.63
2019-05-07T01:32:07.442Z,17.53
2019-05-07T01:35:02.502Z,18.10
2019-05-07T01:37:32.702Z,18.03
2019-05-07T01:40:03.128Z,18.90
2019-05-07T01:42:33.763Z,18.50
2019-05-07T01:45:04.331Z,17.77
2019-05-07T01:47:33.834Z,16.67
2019-05-07T01:50:03.324Z,17.23
2019-05-07T01:52:33.270Z,17.03
2019-05-07T01:55:03.406Z,17.70
2019-05-07T01:57:33.274Z,18.47
2019-05-07T02:00:02.820Z,18.43
2019-05-07T02:02:48.487Z,18.60
2019-05-07T02:05:33.201Z,18.37
2019-05-07T02:08:05.052Z,17.43
2019-05-07T02:10:48.039Z,18.33
2019-05-07T02:13:17.516Z,15.73
2019-05-07T02:15:58.536Z,13.10
2019-05-07T02:18:18.148Z,11.73
2019-05-07T02:20:47.610Z,11.30
2019-05-07T02:23:17.082Z,11.67
2019-05-07T02:25:46.565Z,10.67
2019-05-07T02:28:16.031Z,10.40
2019-05-07T02:30:45.512Z,11.27
2019-05-07T02:33:15.003Z,11.43
2019-05-07T02:35:44.495Z,11.90
2019-05-07T02:38:38.902Z,12.10
2019-05-07T02:41:14.216Z,13.30
2019-05-07T02:43:43.619Z,13.63
2019-05-07T02:46:29.908Z,13.10
2019-05-07T02:49:02.866Z,12.00
2019-05-07T02:51:35.939Z,11.07
2019-05-07T02:54:27.208Z,10.93
2019-05-07T02:56:56.729Z,11.33
2019-05-07T02:59:26.179Z,9.77
2019-05-07T03:01:55.661Z,11.00
2019-05-07T03:04:25.461Z,9.40
2019-05-07T03:06:55.269Z,9.73
2019-05-07T03:09:24.743Z,10.00
2019-05-07T03:11:54.232Z,11.00
2019-05-07T03:14:23.822Z,13.10
2019-05-07T03:16:53.842Z,12.70
2019-05-07T03:19:24.335Z,13.90
2019-05-07T03:21:54.924Z,13.23
2019-05-07T03:24:44.772Z,13.20
2019-05-07T03:27:14.756Z,16.07
2019-05-07T03:29:49.634Z,17.20
2019-05-07T03:32:40.119Z,21.73
2019-05-07T03:35:20.146Z,15.13
2019-05-07T03:37:49.679Z,15.53
2019-05-07T03:40:19.156Z,14.97
2019-05-07T03:42:48.620Z,17.20
2019-05-07T03:45:37.033Z,17.60
2019-05-07T03:48:14.508Z,13.43
2019-05-07T03:50:43.982Z,12.33
2019-05-07T03:53:14.393Z,11.30
2019-05-07T03:55:44.983Z,13.60
2019-05-07T03:58:14.974Z,8.83
2019-05-07T04:00:45.203Z,10.37
2019-05-07T04:03:19.100Z,12.60
2019-05-07T04:05:45.956Z,11.70
2019-05-07T04:08:15.422Z,11.30
2019-05-07T04:10:44.924Z,11.00
2019-05-07T04:13:14.392Z,17.27
2019-05-07T04:15:44.374Z,14.73
2019-05-07T04:18:14.088Z,16.27
2019-05-07T04:20:44.007Z,13.27
2019-05-07T04:23:14.269Z,17.93
2019-05-07T04:26:08.772Z,14.37
2019-05-07T04:29:05.574Z,12.70
2019-05-07T04:31:38.642Z,12.50
2019-05-07T04:34:29.821Z,12.17
2019-05-07T04:36:59.303Z,12.70
2019-05-07T04:39:28.785Z,12.23
2019-05-07T04:41:58.268Z,15.37
2019-05-07T04:44:27.761Z,14.27
2019-05-07T04:46:57.237Z,10.77
2019-05-07T04:49:26.710Z,12.50
2019-05-07T04:52:12.511Z,16.20
2019-05-07T04:54:43.660Z,11.60
2019-05-07T04:57:27.830Z,13.60
2019-05-07T04:59:57.962Z,12.70
2019-05-07T05:02:46.902Z,10.30
2019-05-07T05:05:17.495Z,11.17
2019-05-07T05:07:47.008Z,10.97
2019-05-07T05:10:16.513Z,10.10
2019-05-07T05:12:46.056Z,11.33
2019-05-07T05:15:16.229Z,11.73
2019-05-07T05:17:50.495Z,11.40
2019-05-07T05:20:19.247Z,10.87
2019-05-07T05:23:12.107Z,10.57
2019-05-07T05:25:43.165Z,14.03
2019-05-07T05:28:13.563Z,15.67
2019-05-07T05:30:47.294Z,14.90
2019-05-07T05:33:16.746Z,15.97
2019-05-07T05:35:46.285Z,11.80
2019-05-07T05:38:15.743Z,10.37
2019-05-07T05:40:45.270Z,11.37
2019-05-07T05:43:27.687Z,14.23
2019-05-07T05:45:59.297Z,12.47
2019-05-07T05:48:28.766Z,11.20
2019-05-07T05:51:20.074Z,11.73
2019-05-07T05:54:14.932Z,11.60
2019-05-07T05:56:51.838Z,12.73
2019-05-07T05:59:49.163Z,12.00
2019-05-07T06:02:43.849Z,17.63
2019-05-07T06:05:34.350Z,15.10
2019-05-07T06:08:12.371Z,14.17
2019-05-07T06:10:47.886Z,15.43
2019-05-07T06:13:52.706Z,14.47
2019-05-07T06:16:26.477Z,13.10
2019-05-07T06:19:14.869Z,13.90
2019-05-07T06:22:02.109Z,15.67
2019-05-07T06:24:42.666Z,14.20
2019-05-07T06:27:12.310Z,16.50
2019-05-07T06:29:42.614Z,15.30
2019-05-07T06:32:13.856Z,14.83
2019-05-07T06:34:44.748Z,14.30
2019-05-07T06:37:14.618Z,13.47
2019-05-07T06:39:49.610Z,14.97
2019-05-07T06:42:33.134Z,14.40
2019-05-07T06:45:12.335Z,15.07
2019-05-07T06:47:42.572Z,13.07
2019-05-07T06:50:14.593Z,13.00
2019-05-07T06:52:44.061Z,12.77
2019-05-07T06:55:13.912Z,11.97
2019-05-07T06:57:43.383Z,12.60
2019-05-07T07:00:32.799Z,11.60
2019-05-07T07:03:14.062Z,13.10
2019-05-07T07:06:14.782Z,11.40
2019-05-07T07:08:58.963Z,10.80
2019-05-07T07:11:34.498Z,10.87
2019-05-07T07:14:04.059Z,10.13
2019-05-07T07:16:33.548Z,10.87
2019-05-07T07:19:03.410Z,9.77
2019-05-07T07:21:33.172Z,9.10
2019-05-07T07:24:03.093Z,9.73
2019-05-07T07:26:34.169Z,9.77
2019-05-07T07:29:03.685Z,9.80
2019-05-07T07:31:37.450Z,10.20
2019-05-07T07:34:07.333Z,10.33
2019-05-07T07:36:43.159Z,9.90
2019-05-07T07:39:12.783Z,10.00
2019-05-07T07:41:53.652Z,10.43
2019-05-07T07:44:23.160Z,9.83
2019-05-07T07:46:53.209Z,9.83
2019-05-07T07:49:22.835Z,11.17
2019-05-07T07:51:52.720Z,9.67
2019-05-07T07:54:22.823Z,9.27
2019-05-07T07:57:12.612Z,10.13
2019-05-07T07:59:48.574Z,8.57
2019-05-07T08:02:46.112Z,7.90
2019-05-07T08:05:15.608Z,7.47
2019-05-07T08:07:45.108Z,6.20
2019-05-07T08:10:14.827Z,5.87
2019-05-07T08:12:44.332Z,5.47
2019-05-07T08:15:20.267Z,6.07
2019-05-07T08:17:45.072Z,5.60
2019-05-07T08:20:15.265Z,6.27
2019-05-07T08:22:44.752Z,3.10
2019-05-07T08:25:14.308Z,4.67
2019-05-07T08:27:43.768Z,3.90
2019-05-07T08:30:17.897Z,4.17
2019-05-07T08:33:09.781Z,4.03
2019-05-07T08:35:52.202Z,4.03
2019-05-07T08:38:21.984Z,4.23
2019-05-07T08:40:52.113Z,5.03
2019-05-07T08:43:21.925Z,5.10
2019-05-07T08:46:16.527Z,4.80
2019-05-07T08:48:48.456Z,4.00
2019-05-07T08:51:17.901Z,5.00
2019-05-07T08:53:50.070Z,3.77
2019-05-07T08:56:19.532Z,3.63
2019-05-07T08:58:49.236Z,2.87
2019-05-07T09:01:18.729Z,3.33
2019-05-07T09:03:48.199Z,3.30
2019-05-07T09:06:21.995Z,2.80
2019-05-07T09:08:52.659Z,3.00
2019-05-07T09:11:23.035Z,3.70
2019-05-07T09:13:52.605Z,3.30
2019-05-07T09:16:23.288Z,3.20
2019-05-07T09:18:52.855Z,3.20
2019-05-07T09:21:22.755Z,4.20
2019-05-07T09:23:52.722Z,3.37
2019-05-07T09:26:26.761Z,3.47
2019-05-07T09:29:02.777Z,4.00
2019-05-07T09:31:57.491Z,3.80
2019-05-07T09:34:28.486Z,4.13
2019-05-07T09:36:59.606Z,4.03
2019-05-07T09:39:29.126Z,4.20
2019-05-07T09:41:58.608Z,4.90
2019-05-07T09:44:28.097Z,4.47
2019-05-07T09:46:57.583Z,4.73
2019-05-07T09:49:27.046Z,4.43
2019-05-07T09:51:56.517Z,4.20
2019-05-07T09:54:25.985Z,4.47
2019-05-07T09:56:55.465Z,4.20
2019-05-07T09:59:24.921Z,4.00
2019-05-07T10:01:54.367Z,4.90
2019-05-07T10:04:23.821Z,4.60
2019-05-07T10:06:53.300Z,5.03
2019-05-07T10:09:22.786Z,5.23
2019-05-07T10:12:02.800Z,5.30
2019-05-07T10:14:33.144Z,4.53
2019-05-07T10:17:11.989Z,4.73
2019-05-07T10:19:41.805Z,4.60
2019-05-07T10:22:12.643Z,4.40
2019-05-07T10:24:41.914Z,4.40
2019-05-07T10:27:12.620Z,4.40
2019-05-07T10:29:42.811Z,3.93
2019-05-07T10:32:12.972Z,3.53
2019-05-07T10:34:42.460Z,3.80
2019-05-07T10:37:12.140Z,3.53
2019-05-07T10:39:43.067Z,3.87
2019-05-07T10:42:12.811Z,3.77
2019-05-07T10:44:56.800Z,4.00
2019-05-07T10:47:38.114Z,3.57
2019-05-07T10:50:17.090Z,4.00
2019-05-07T10:52:46.571Z,3.97
2019-05-07T10:55:16.167Z,4.40
2019-05-07T10:57:45.656Z,3.60
2019-05-07T11:00:17.611Z,3.17
2019-05-07T11:02:47.199Z,3.00
2019-05-07T11:05:16.763Z,3.00
2019-05-07T11:07:46.225Z,3.20
2019-05-07T11:10:16.256Z,3.83
2019-05-07T11:12:45.709Z,3.70
2019-05-07T11:15:15.599Z,3.53
2019-05-07T11:17:59.538Z,3.60
2019-05-07T11:20:29.004Z,3.87
2019-05-07T11:22:58.481Z,3.67
2019-05-07T11:25:28.036Z,3.50
2019-05-07T11:27:57.498Z,3.60
2019-05-07T11:30:26.974Z,4.10
2019-05-07T11:32:56.461Z,4.10
2019-05-07T11:35:25.953Z,3.13
2019-05-07T11:37:55.425Z,3.43
2019-05-07T11:40:25.103Z,3.77
2019-05-07T11:43:09.928Z,4.10
2019-05-07T11:46:01.967Z,4.03
2019-05-07T11:48:36.194Z,4.13
2019-05-07T11:51:23.231Z,4.20
2019-05-07T11:54:09.296Z,4.67
2019-05-07T11:56:38.997Z,3.90
2019-05-07T11:59:08.480Z,4.10
2019-05-07T12:01:46.197Z,4.03
2019-05-07T12:04:12.523Z,3.80
2019-05-07T12:06:42.323Z,3.90
2019-05-07T12:09:12.221Z,4.03
2019-05-07T12:11:42.588Z,4.10
2019-05-07T12:14:12.521Z,3.77
2019-05-07T12:16:42.687Z,4.20
2019-05-07T12:19:13.164Z,4.27
2019-05-07T12:21:43.592Z,3.50
2019-05-07T12:24:16.265Z,4.37
2019-05-07T12:26:44.622Z,3.80
2019-05-07T12:29:14.102Z,4.20
2019-05-07T12:32:08.558Z,3.90
2019-05-07T12:34:42.350Z,3.62
2019-05-07T12:37:12.395Z,3.90
2019-05-07T12:39:42.330Z,4.00
2019-05-07T12:42:12.307Z,3.83
2019-05-07T12:44:42.627Z,4.50
2019-05-07T12:47:22.525Z,3.98
2019-05-07T12:49:52.056Z,4.30
2019-05-07T12:52:33.277Z,4.20
2019-05-07T12:55:23.128Z,4.85
2019-05-07T12:57:52.757Z,4.47
2019-05-07T13:00:51.862Z,4.12
2019-05-07T13:03:42.808Z,4.10
2019-05-07T13:06:12.659Z,4.42
2019-05-07T13:08:42.173Z,4.57
2019-05-07T13:11:13.249Z,4.60
2019-05-07T13:13:42.774Z,4.57
2019-05-07T13:16:12.830Z,5.10
2019-05-07T13:18:42.503Z,4.50
2019-05-07T13:21:12.042Z,4.80
2019-05-07T13:23:42.146Z,4.77
2019-05-07T13:26:11.721Z,4.77
2019-05-07T13:28:41.981Z,3.70
2019-05-07T13:31:12.592Z,4.17
2019-05-07T13:33:43.841Z,4.13
2019-05-07T13:36:13.314Z,4.43
2019-05-07T13:39:05.810Z,4.77
2019-05-07T13:41:55.980Z,4.30
2019-05-07T13:44:55.008Z,3.80
2019-05-07T13:47:26.873Z,4.10
2019-05-07T13:49:57.837Z,4.30
2019-05-07T13:52:27.370Z,4.20
2019-05-07T13:54:56.919Z,4.97
2019-05-07T13:57:26.504Z,4.42
2019-05-07T14:00:02.387Z,4.63
2019-05-07T14:02:32.342Z,5.33
2019-05-07T14:05:01.937Z,5.55
2019-05-07T14:07:34.071Z,4.30
2019-05-07T14:10:03.651Z,4.20
2019-05-07T14:12:33.753Z,3.98
2019-05-07T14:15:03.821Z,4.70
2019-05-07T14:17:33.310Z,5.20
2019-05-07T14:20:04.905Z,3.97
2019-05-07T14:22:33.874Z,4.33
2019-05-07T14:25:03.343Z,4.08
2019-05-07T14:27:32.924Z,3.75
2019-05-07T14:30:02.839Z,4.00
2019-05-07T14:32:44.407Z,4.47
2019-05-07T14:35:23.564Z,4.47
2019-05-07T14:38:13.936Z,4.07
2019-05-07T14:40:43.426Z,4.00
2019-05-07T14:43:22.414Z,4.22
2019-05-07T14:45:52.281Z,3.70
2019-05-07T14:48:22.521Z,3.60
2019-05-07T14:50:53.064Z,3.95
2019-05-07T14:53:23.267Z,3.67
2019-05-07T14:55:52.731Z,3.52
2019-05-07T14:58:22.215Z,3.77
2019-05-07T15:00:51.960Z,3.37
2019-05-07T15:03:22.895Z,3.12
2019-05-07T15:05:52.628Z,3.80
2019-05-07T15:08:22.162Z,3.45
2019-05-07T15:10:52.487Z,3.55
2019-05-07T15:13:22.415Z,3.70
2019-05-07T15:15:52.580Z,4.03
2019-05-07T15:18:26.832Z,3.45
2019-05-07T15:20:56.319Z,4.17
2019-05-07T15:23:35.264Z,4.40
2019-05-07T15:26:05.545Z,4.05
2019-05-07T15:28:36.011Z,4.00
2019-05-07T15:31:12.457Z,3.80
2019-05-07T15:33:41.978Z,4.23
2019-05-07T15:36:11.944Z,4.60
2019-05-07T15:38:42.883Z,4.73
2019-05-07T15:41:12.747Z,4.67
2019-05-07T15:43:45.850Z,4.27
2019-05-07T15:46:13.451Z,3.93
2019-05-07T15:48:42.927Z,4.80
2019-05-07T15:51:12.398Z,5.13
2019-05-07T15:53:51.906Z,5.10
2019-05-07T15:56:21.910Z,5.23
2019-05-07T15:58:51.833Z,4.97
2019-05-07T16:01:22.196Z,4.80
2019-05-07T16:03:54.945Z,5.70
2019-05-07T16:06:23.102Z,6.73
2019-05-07T16:08:55.056Z,7.00
2019-05-07T16:11:24.526Z,7.30
2019-05-07T16:14:12.434Z,7.47
2019-05-07T16:16:45.575Z,8.23
2019-05-07T16:19:26.309Z,8.67
2019-05-07T16:21:56.538Z,8.23
2019-05-07T16:24:26.029Z,9.03
2019-05-07T16:26:54.935Z,8.80
2019-05-07T16:29:24.394Z,8.50
2019-05-07T16:31:53.896Z,8.87
2019-05-07T16:34:24.667Z,8.80
2019-05-07T16:36:54.298Z,9.73
2019-05-07T16:39:23.782Z,9.17
2019-05-07T16:41:53.244Z,8.83
2019-05-07T16:44:22.744Z,8.10
2019-05-07T16:46:53.448Z,9.20
2019-05-07T16:49:23.049Z,8.87
2019-05-07T16:51:52.582Z,8.40
2019-05-07T16:54:22.014Z,8.50
2019-05-07T16:57:09.465Z,8.50
2019-05-07T16:59:38.960Z,8.90
2019-05-07T17:02:14.547Z,9.03
2019-05-07T17:05:03.201Z,8.37
2019-05-07T17:07:32.643Z,8.47
2019-05-07T17:10:02.600Z,8.23
2019-05-07T17:12:32.582Z,8.57
2019-05-07T17:15:02.929Z,8.30
2019-05-07T17:17:32.750Z,8.20
2019-05-07T17:20:02.938Z,8.37
2019-05-07T17:22:32.556Z,9.03
2019-05-07T17:25:22.730Z,8.43
2019-05-07T17:27:52.204Z,8.73
2019-05-07T17:30:21.685Z,8.57
2019-05-07T17:32:52.554Z,8.80
2019-05-07T17:35:22.442Z,9.03
2019-05-07T17:37:52.010Z,8.83
2019-05-07T17:40:22.589Z,8.73
2019-05-07T17:42:52.579Z,9.17
2019-05-07T17:45:22.758Z,9.37
2019-05-07T17:47:52.611Z,10.10
2019-05-07T17:50:26.042Z,9.90
2019-05-07T17:52:55.540Z,9.77
2019-05-07T17:55:25.017Z,9.47
2019-05-07T17:57:54.577Z,10.20
2019-05-07T18:00:24.072Z,9.83
2019-05-07T18:03:27.842Z,10.40
2019-05-07T18:05:57.308Z,11.13
2019-05-07T18:08:26.796Z,10.53
2019-05-07T18:10:56.921Z,10.10
2019-05-07T18:13:26.421Z,9.60
2019-05-07T18:15:58.289Z,10.57
2019-05-07T18:18:27.788Z,11.40
2019-05-07T18:20:57.272Z,10.90
2019-05-07T18:23:26.782Z,10.47
2019-05-07T18:25:58.585Z,10.87
2019-05-07T18:28:32.362Z,11.40
2019-05-07T18:31:02.079Z,9.97
2019-05-07T18:33:41.788Z,10.63
2019-05-07T18:36:12.159Z,10.30
2019-05-07T18:38:42.442Z,10.13
2019-05-07T18:41:12.350Z,10.33
2019-05-07T18:43:42.298Z,11.47
2019-05-07T18:46:12.874Z,10.40
2019-05-07T18:48:42.847Z,11.40
2019-05-07T18:51:12.165Z,11.40
2019-05-07T18:53:42.540Z,11.93
2019-05-07T18:56:12.617Z,11.60
2019-05-07T18:58:42.706Z,11.50
2019-05-07T19:01:13.629Z,10.80
2019-05-07T19:03:43.113Z,11.13
2019-05-07T19:06:13.507Z,11.90
2019-05-07T19:08:43.314Z,12.00
2019-05-07T19:11:12.891Z,12.53
2019-05-07T19:13:42.382Z,12.50
2019-05-07T19:16:12.429Z,12.70
2019-05-07T19:18:43.199Z,12.70
2019-05-07T19:21:12.933Z,14.07
2019-05-07T19:23:42.541Z,13.80
2019-05-07T19:26:13.145Z,15.13
2019-05-07T19:28:42.779Z,14.57
2019-05-07T19:31:12.581Z,13.67
2019-05-07T19:33:43.408Z,14.50
2019-05-07T19:36:18.380Z,14.80
2019-05-07T19:38:52.553Z,13.93
2019-05-07T19:41:26.733Z,14.77
2019-05-07T19:43:57.899Z,14.23
2019-05-07T19:46:28.017Z,15.07
2019-05-07T19:48:58.047Z,13.87
2019-05-07T19:51:32.101Z,14.00
2019-05-07T19:54:02.155Z,13.17
2019-05-07T19:56:34.398Z,13.03
2019-05-07T19:59:04.017Z,13.27
2019-05-07T20:01:42.572Z,15.13
2019-05-07T20:04:13.277Z,15.20
2019-05-07T20:06:43.911Z,15.97
2019-05-07T20:09:15.773Z,15.00
2019-05-07T20:11:47.416Z,51.80
2019-05-07T20:14:16.891Z,24.97
2019-05-07T20:16:46.396Z,24.87
2019-05-07T20:19:15.890Z,23.90
2019-05-07T20:21:45.394Z,23.17
2019-05-07T20:24:14.878Z,24.87
2019-05-07T20:26:44.366Z,23.33
2019-05-07T20:29:13.875Z,25.23
2019-05-07T20:31:43.374Z,30.13
2019-05-07T20:34:13.231Z,27.13
2019-05-07T20:36:42.936Z,17.50
2019-05-07T20:39:12.889Z,16.70
2019-05-07T20:41:42.912Z,20.00
2019-05-07T20:44:12.727Z,20.07
2019-05-07T20:46:42.323Z,18.00
2019-05-07T20:49:13.081Z,19.03
2019-05-07T20:51:43.078Z,19.23
2019-05-07T20:54:37.291Z,19.20
2019-05-07T20:57:09.919Z,15.90
2019-05-07T20:59:39.369Z,15.50
2019-05-07T21:02:08.859Z,14.67
2019-05-07T21:04:38.335Z,16.37
2019-05-07T21:07:07.803Z,15.87
2019-05-07T21:09:37.291Z,15.80
2019-05-07T21:12:06.772Z,16.37
2019-05-07T21:14:36.279Z,16.43
2019-05-07T21:17:05.771Z,17.10
2019-05-07T21:19:35.307Z,16.97
2019-05-07T21:22:04.737Z,17.60
2019-05-07T21:24:34.194Z,16.73
2019-05-07T21:27:03.666Z,16.57
2019-05-07T21:29:33.154Z,16.40
2019-05-07T21:32:03.283Z,15.43
2019-05-07T21:34:33.119Z,17.17
2019-05-07T21:37:03.240Z,17.10
2019-05-07T21:39:33.120Z,16.33
2019-05-07T21:42:02.887Z,17.23
2019-05-07T21:44:32.724Z,18.30
2019-05-07T21:47:03.873Z,18.67
2019-05-07T21:49:33.496Z,18.17
2019-05-07T21:52:02.962Z,18.73
2019-05-07T21:54:38.124Z,17.83
2019-05-07T21:57:32.984Z,17.73
2019-05-07T22:00:22.120Z,20.07
2019-05-07T22:02:52.598Z,19.13
2019-05-07T22:05:22.536Z,19.37
2019-05-07T22:07:54.131Z,18.70
2019-05-07T22:10:23.219Z,17.97
2019-05-07T22:12:54.651Z,17.63
2019-05-07T22:15:23.832Z,19.27
2019-05-07T22:17:53.336Z,18.73
2019-05-07T22:20:22.844Z,18.80
2019-05-07T22:22:52.283Z,18.27
2019-05-07T22:25:22.274Z,17.53
2019-05-07T22:27:53.005Z,18.40
2019-05-07T22:30:29.538Z,17.40
2019-05-07T22:33:07.019Z,17.67
2019-05-07T22:35:39.588Z,16.90
2019-05-07T22:38:09.046Z,16.97
2019-05-07T22:40:38.550Z,17.80
2019-05-07T22:43:08.029Z,16.27
2019-05-07T22:45:37.541Z,16.70
2019-05-07T22:48:06.418Z,17.30
2019-05-07T22:50:35.900Z,15.43
2019-05-07T22:53:05.390Z,15.17
2019-05-07T22:55:34.873Z,15.50
2019-05-07T22:58:09.627Z,15.43
2019-05-07T23:00:52.783Z,15.10
2019-05-07T23:03:22.824Z,14.97
2019-05-07T23:05:53.984Z,15.13
2019-05-07T23:08:23.476Z,15.50
2019-05-07T23:10:52.945Z,15.73
2019-05-07T23:13:22.702Z,15.27
2019-05-07T23:15:53.856Z,15.47
2019-05-07T23:18:23.420Z,14.67
2019-05-07T23:20:52.916Z,15.23
2019-05-07T23:23:22.381Z,15.07
2019-05-07T23:25:54.309Z,15.27
2019-05-07T23:28:23.782Z,15.23
2019-05-07T23:30:53.260Z,14.50
2019-05-07T23:33:22.783Z,14.90
2019-05-07T23:35:52.847Z,15.00
2019-05-07T23:38:22.707Z,14.97
2019-05-07T23:41:16.009Z,15.73
2019-05-07T23:44:04.777Z,15.53
2019-05-07T23:46:34.303Z,15.83
2019-05-07T23:49:03.751Z,15.47
2019-05-07T23:51:33.239Z,15.37
2019-05-07T23:54:04.297Z,15.67
2019-05-07T23:56:33.834Z,15.50
2019-05-07T23:59:03.591Z,15.47
